sensor_id;sensor_type;location;lat;lon;timestamp;temperature;humidity
72762;SHT30;60886;55.034;73.150;2023-12-14T00:01:21;-18.72;64.65
72762;SHT30;60886;55.034;73.150;2023-12-14T00:04:23;-18.87;64.70
72762;SHT30;60886;55.034;73.150;2023-12-14T00:07:24;-18.88;65.34
72762;SHT30;60886;55.034;73.150;2023-12-14T00:10:25;-18.90;65.26
72762;SHT30;60886;55.034;73.150;2023-12-14T00:13:27;-18.87;65.17
72762;SHT30;60886;55.034;73.150;2023-12-14T00:16:28;-18.86;65.01
72762;SHT30;60886;55.034;73.150;2023-12-14T00:19:30;-18.91;64.99
72762;SHT30;60886;55.034;73.150;2023-12-14T00:22:31;-18.94;65.21
72762;SHT30;60886;55.034;73.150;2023-12-14T00:25:33;-18.96;65.12
72762;SHT30;60886;55.034;73.150;2023-12-14T00:28:34;-18.93;65.02
72762;SHT30;60886;55.034;73.150;2023-12-14T00:31:39;-18.87;64.96
72762;SHT30;60886;55.034;73.150;2023-12-14T00:34:41;-18.84;64.94
72762;SHT30;60886;55.034;73.150;2023-12-14T00:37:42;-18.81;65.04
72762;SHT30;60886;55.034;73.150;2023-12-14T00:40:44;-18.77;64.82
72762;SHT30;60886;55.034;73.150;2023-12-14T00:43:45;-18.76;64.81
72762;SHT30;60886;55.034;73.150;2023-12-14T00:46:47;-18.73;64.68
72762;SHT30;60886;55.034;73.150;2023-12-14T00:49:48;-18.73;65.38
72762;SHT30;60886;55.034;73.150;2023-12-14T00:52:50;-18.70;65.04
72762;SHT30;60886;55.034;73.150;2023-12-14T00:55:52;-18.67;65.04
72762;SHT30;60886;55.034;73.150;2023-12-14T00:58:53;-18.67;64.80
72762;SHT30;60886;55.034;73.150;2023-12-14T01:02:00;-18.69;64.50
72762;SHT30;60886;55.034;73.150;2023-12-14T01:05:01;-18.70;64.29
72762;SHT30;60886;55.034;73.150;2023-12-14T01:08:04;-18.73;64.44
72762;SHT30;60886;55.034;73.150;2023-12-14T01:11:06;-18.69;64.61
72762;SHT30;60886;55.034;73.150;2023-12-14T01:14:23;-18.69;64.47
72762;SHT30;60886;55.034;73.150;2023-12-14T01:17:25;-18.67;64.25
72762;SHT30;60886;55.034;73.150;2023-12-14T01:20:26;-18.67;64.02
72762;SHT30;60886;55.034;73.150;2023-12-14T01:23:28;-18.67;64.12
72762;SHT30;60886;55.034;73.150;2023-12-14T01:26:29;-18.67;64.34
72762;SHT30;60886;55.034;73.150;2023-12-14T01:29:31;-18.86;64.03
72762;SHT30;60886;55.034;73.150;2023-12-14T01:32:32;-18.77;64.53
72762;SHT30;60886;55.034;73.150;2023-12-14T01:35:34;-18.73;64.44
72762;SHT30;60886;55.034;73.150;2023-12-14T01:38:35;-18.62;63.98
72762;SHT30;60886;55.034;73.150;2023-12-14T01:41:37;-18.62;64.03
72762;SHT30;60886;55.034;73.150;2023-12-14T01:44:38;-18.57;63.85
72762;SHT30;60886;55.034;73.150;2023-12-14T01:47:40;-18.70;63.82
72762;SHT30;60886;55.034;73.150;2023-12-14T01:50:42;-18.69;63.92
72762;SHT30;60886;55.034;73.150;2023-12-14T01:53:43;-18.63;64.26
72762;SHT30;60886;55.034;73.150;2023-12-14T01:56:45;-18.66;64.05
72762;SHT30;60886;55.034;73.150;2023-12-14T01:59:47;-18.75;64.26
72762;SHT30;60886;55.034;73.150;2023-12-14T02:02:49;-18.70;64.41
72762;SHT30;60886;55.034;73.150;2023-12-14T02:05:51;-18.72;64.20
72762;SHT30;60886;55.034;73.150;2023-12-14T02:08:52;-18.75;64.02
72762;SHT30;60886;55.034;73.150;2023-12-14T02:12:00;-18.76;64.03
72762;SHT30;60886;55.034;73.150;2023-12-14T02:15:05;-18.79;63.85
72762;SHT30;60886;55.034;73.150;2023-12-14T02:18:10;-18.80;63.85
72762;SHT30;60886;55.034;73.150;2023-12-14T02:21:12;-18.73;63.20
72762;SHT30;60886;55.034;73.150;2023-12-14T02:24:13;-18.79;62.87
72762;SHT30;60886;55.034;73.150;2023-12-14T02:27:15;-18.83;62.84
72762;SHT30;60886;55.034;73.150;2023-12-14T02:30:17;-18.91;62.69
72762;SHT30;60886;55.034;73.150;2023-12-14T02:33:19;-18.83;62.79
72762;SHT30;60886;55.034;73.150;2023-12-14T02:36:20;-18.97;62.50
72762;SHT30;60886;55.034;73.150;2023-12-14T02:39:22;-18.98;62.36
72762;SHT30;60886;55.034;73.150;2023-12-14T02:42:24;-19.07;62.04
72762;SHT30;60886;55.034;73.150;2023-12-14T02:45:26;-19.15;61.90
72762;SHT30;60886;55.034;73.150;2023-12-14T02:48:28;-19.22;62.03
72762;SHT30;60886;55.034;73.150;2023-12-14T02:51:32;-19.24;62.25
72762;SHT30;60886;55.034;73.150;2023-12-14T02:54:34;-19.24;62.23
72762;SHT30;60886;55.034;73.150;2023-12-14T02:57:35;-19.35;62.39
72762;SHT30;60886;55.034;73.150;2023-12-14T03:00:37;-19.34;62.56
72762;SHT30;60886;55.034;73.150;2023-12-14T03:03:39;-19.42;62.43
72762;SHT30;60886;55.034;73.150;2023-12-14T03:06:41;-19.48;62.58
72762;SHT30;60886;55.034;73.150;2023-12-14T03:09:42;-19.61;62.89
72762;SHT30;60886;55.034;73.150;2023-12-14T03:12:45;-19.72;63.03
72762;SHT30;60886;55.034;73.150;2023-12-14T03:15:47;-19.75;63.37
72762;SHT30;60886;55.034;73.150;2023-12-14T03:18:50;-19.78;63.27
72762;SHT30;60886;55.034;73.150;2023-12-14T03:22:00;-19.87;63.20
72762;SHT30;60886;55.034;73.150;2023-12-14T03:25:01;-19.95;63.16
72762;SHT30;60886;55.034;73.150;2023-12-14T03:28:08;-20.05;63.64
72762;SHT30;60886;55.034;73.150;2023-12-14T03:31:11;-20.10;63.22
72762;SHT30;60886;55.034;73.150;2023-12-14T03:34:13;-20.17;63.27
72762;SHT30;60886;55.034;73.150;2023-12-14T03:37:15;-20.33;63.17
72762;SHT30;60886;55.034;73.150;2023-12-14T03:40:16;-20.41;63.33
72762;SHT30;60886;55.034;73.150;2023-12-14T03:43:18;-20.51;63.43
72762;SHT30;60886;55.034;73.150;2023-12-14T03:46:20;-20.57;63.94
72762;SHT30;60886;55.034;73.150;2023-12-14T03:49:21;-20.54;64.55
72762;SHT30;60886;55.034;73.150;2023-12-14T03:52:23;-20.51;64.69
72762;SHT30;60886;55.034;73.150;2023-12-14T03:55:25;-20.48;64.21
72762;SHT30;60886;55.034;73.150;2023-12-14T03:58:26;-20.48;64.23
72762;SHT30;60886;55.034;73.150;2023-12-14T04:01:28;-20.48;64.36
72762;SHT30;60886;55.034;73.150;2023-12-14T04:04:29;-20.45;64.39
72762;SHT30;60886;55.034;73.150;2023-12-14T04:07:31;-20.47;64.47
72762;SHT30;60886;55.034;73.150;2023-12-14T04:10:33;-20.48;64.58
72762;SHT30;60886;55.034;73.150;2023-12-14T04:13:34;-20.50;63.97
72762;SHT30;60886;55.034;73.150;2023-12-14T04:16:39;-20.52;64.36
72762;SHT30;60886;55.034;73.150;2023-12-14T04:19:41;-20.62;63.84
72762;SHT30;60886;55.034;73.150;2023-12-14T04:22:43;-20.75;63.38
72762;SHT30;60886;55.034;73.150;2023-12-14T04:25:45;-20.79;63.47
72762;SHT30;60886;55.034;73.150;2023-12-14T04:28:47;-20.89;63.79
72762;SHT30;60886;55.034;73.150;2023-12-14T04:31:49;-20.88;63.89
72762;SHT30;60886;55.034;73.150;2023-12-14T04:34:50;-20.88;63.74
72762;SHT30;60886;55.034;73.150;2023-12-14T04:37:52;-20.76;64.11
72762;SHT30;60886;55.034;73.150;2023-12-14T04:40:54;-20.88;63.54
72762;SHT30;60886;55.034;73.150;2023-12-14T04:43:55;-20.85;63.58
72762;SHT30;60886;55.034;73.150;2023-12-14T04:47:00;-20.81;63.62
72762;SHT30;60886;55.034;73.150;2023-12-14T04:50:02;-20.83;63.62
72762;SHT30;60886;55.034;73.150;2023-12-14T04:53:05;-20.73;63.71
72762;SHT30;60886;55.034;73.150;2023-12-14T04:56:10;-20.58;64.01
72762;SHT30;60886;55.034;73.150;2023-12-14T04:59:12;-20.59;63.63
72762;SHT30;60886;55.034;73.150;2023-12-14T05:02:14;-20.48;63.45
72762;SHT30;60886;55.034;73.150;2023-12-14T05:05:15;-20.44;63.63
72762;SHT30;60886;55.034;73.150;2023-12-14T05:08:17;-20.33;63.06
72762;SHT30;60886;55.034;73.150;2023-12-14T05:11:18;-20.23;62.68
72762;SHT30;60886;55.034;73.150;2023-12-14T05:14:20;-20.17;62.42
72762;SHT30;60886;55.034;73.150;2023-12-14T05:17:21;-20.10;62.63
72762;SHT30;60886;55.034;73.150;2023-12-14T05:20:23;-20.13;62.02
72762;SHT30;60886;55.034;73.150;2023-12-14T05:23:24;-20.09;61.84
72762;SHT30;60886;55.034;73.150;2023-12-14T05:26:26;-20.00;62.24
72762;SHT30;60886;55.034;73.150;2023-12-14T05:29:27;-19.95;61.79
72762;SHT30;60886;55.034;73.150;2023-12-14T05:32:29;-19.97;61.64
72762;SHT30;60886;55.034;73.150;2023-12-14T05:35:30;-19.83;61.75
72762;SHT30;60886;55.034;73.150;2023-12-14T05:38:32;-19.75;61.69
72762;SHT30;60886;55.034;73.150;2023-12-14T05:41:33;-19.59;61.35
72762;SHT30;60886;55.034;73.150;2023-12-14T05:44:41;-19.59;60.66
72762;SHT30;60886;55.034;73.150;2023-12-14T05:47:42;-19.50;60.64
72762;SHT30;60886;55.034;73.150;2023-12-14T05:50:44;-19.43;60.43
72762;SHT30;60886;55.034;73.150;2023-12-14T05:53:45;-19.41;60.36
72762;SHT30;60886;55.034;73.150;2023-12-14T05:56:47;-19.34;60.15
72762;SHT30;60886;55.034;73.150;2023-12-14T05:59:51;-19.34;59.96
72762;SHT30;60886;55.034;73.150;2023-12-14T06:02:53;-19.27;59.84
72762;SHT30;60886;55.034;73.150;2023-12-14T06:05:54;-19.32;59.70
72762;SHT30;60886;55.034;73.150;2023-12-14T06:08:56;-19.21;60.20
72762;SHT30;60886;55.034;73.150;2023-12-14T06:12:02;-19.17;59.88
72762;SHT30;60886;55.034;73.150;2023-12-14T06:15:05;-19.07;59.51
72762;SHT30;60886;55.034;73.150;2023-12-14T06:18:07;-19.01;59.04
72762;SHT30;60886;55.034;73.150;2023-12-14T06:21:11;-18.93;59.26
72762;SHT30;60886;55.034;73.150;2023-12-14T06:24:13;-18.88;59.15
72762;SHT30;60886;55.034;73.150;2023-12-14T06:27:15;-18.86;58.95
72762;SHT30;60886;55.034;73.150;2023-12-14T06:30:16;-18.86;59.07
72762;SHT30;60886;55.034;73.150;2023-12-14T06:33:18;-18.80;59.17
72762;SHT30;60886;55.034;73.150;2023-12-14T06:36:20;-18.80;58.99
72762;SHT30;60886;55.034;73.150;2023-12-14T06:39:21;-18.75;58.76
72762;SHT30;60886;55.034;73.150;2023-12-14T06:42:27;-18.66;58.30
72762;SHT30;60886;55.034;73.150;2023-12-14T06:45:29;-18.66;57.98
72762;SHT30;60886;55.034;73.150;2023-12-14T06:48:30;-18.59;57.93
72762;SHT30;60886;55.034;73.150;2023-12-14T06:51:32;-18.69;57.93
72762;SHT30;60886;55.034;73.150;2023-12-14T06:54:33;-18.90;57.60
72762;SHT30;60886;55.034;73.150;2023-12-14T06:57:35;-18.90;58.39
72762;SHT30;60886;55.034;73.150;2023-12-14T07:00:39;-18.96;58.30
72762;SHT30;60886;55.034;73.150;2023-12-14T07:03:42;-18.90;58.69
72762;SHT30;60886;55.034;73.150;2023-12-14T07:06:52;-18.98;58.33
72762;SHT30;60886;55.034;73.150;2023-12-14T07:09:54;-18.91;58.87
72762;SHT30;60886;55.034;73.150;2023-12-14T07:12:55;-18.76;59.03
72762;SHT30;60886;55.034;73.150;2023-12-14T07:15:57;-18.69;58.65
72762;SHT30;60886;55.034;73.150;2023-12-14T07:18:58;-18.63;58.44
72762;SHT30;60886;55.034;73.150;2023-12-14T07:22:00;-18.57;58.45
72762;SHT30;60886;55.034;73.150;2023-12-14T07:25:01;-18.46;58.50
72762;SHT30;60886;55.034;73.150;2023-12-14T07:28:04;-18.59;58.10
72762;SHT30;60886;55.034;73.150;2023-12-14T07:31:06;-18.53;58.51
72762;SHT30;60886;55.034;73.150;2023-12-14T07:34:08;-18.41;58.00
72762;SHT30;60886;55.034;73.150;2023-12-14T07:37:09;-18.38;58.07
72762;SHT30;60886;55.034;73.150;2023-12-14T07:40:12;-18.32;57.60
72762;SHT30;60886;55.034;73.150;2023-12-14T07:43:14;-18.25;58.47
72762;SHT30;60886;55.034;73.150;2023-12-14T07:46:16;-18.22;58.15
72762;SHT30;60886;55.034;73.150;2023-12-14T07:49:17;-18.21;57.65
72762;SHT30;60886;55.034;73.150;2023-12-14T07:52:21;-18.17;56.98
72762;SHT30;60886;55.034;73.150;2023-12-14T07:55:23;-18.08;56.93
72762;SHT30;60886;55.034;73.150;2023-12-14T07:58:25;-18.08;57.10
72762;SHT30;60886;55.034;73.150;2023-12-14T08:01:27;-18.05;56.93
72762;SHT30;60886;55.034;73.150;2023-12-14T08:04:28;-18.14;56.25
72762;SHT30;60886;55.034;73.150;2023-12-14T08:07:31;-18.10;57.20
72762;SHT30;60886;55.034;73.150;2023-12-14T08:10:33;-18.11;56.65
72762;SHT30;60886;55.034;73.150;2023-12-14T08:13:35;-18.10;56.51
72762;SHT30;60886;55.034;73.150;2023-12-14T08:16:37;-18.08;56.91
72762;SHT30;60886;55.034;73.150;2023-12-14T08:19:38;-18.11;56.72
72762;SHT30;60886;55.034;73.150;2023-12-14T08:22:40;-18.11;56.58
72762;SHT30;60886;55.034;73.150;2023-12-14T08:25:50;-18.12;56.19
72762;SHT30;60886;55.034;73.150;2023-12-14T08:28:52;-18.24;56.69
72762;SHT30;60886;55.034;73.150;2023-12-14T08:31:59;-18.18;56.59
72762;SHT30;60886;55.034;73.150;2023-12-14T08:35:02;-18.15;56.78
72762;SHT30;60886;55.034;73.150;2023-12-14T08:38:05;-18.10;56.44
72762;SHT30;60886;55.034;73.150;2023-12-14T08:41:07;-18.00;56.48
72762;SHT30;60886;55.034;73.150;2023-12-14T08:44:09;-18.07;56.22
72762;SHT30;60886;55.034;73.150;2023-12-14T08:47:10;-18.17;55.54
72762;SHT30;60886;55.034;73.150;2023-12-14T08:50:12;-18.17;55.82
72762;SHT30;60886;55.034;73.150;2023-12-14T08:53:13;-18.11;55.52
72762;SHT30;60886;55.034;73.150;2023-12-14T08:56:16;-18.17;55.35
72762;SHT30;60886;55.034;73.150;2023-12-14T08:59:26;-18.24;56.10
72762;SHT30;60886;55.034;73.150;2023-12-14T09:02:28;-18.35;56.38
72762;SHT30;60886;55.034;73.150;2023-12-14T09:05:29;-18.31;56.82
72762;SHT30;60886;55.034;73.150;2023-12-14T09:08:31;-18.38;56.61
72762;SHT30;60886;55.034;73.150;2023-12-14T09:11:33;-18.43;56.41
72762;SHT30;60886;55.034;73.150;2023-12-14T09:14:36;-18.38;56.73
72762;SHT30;60886;55.034;73.150;2023-12-14T09:17:37;-18.36;56.91
72762;SHT30;60886;55.034;73.150;2023-12-14T09:20:39;-18.38;57.23
72762;SHT30;60886;55.034;73.150;2023-12-14T09:23:41;-18.38;57.53
72762;SHT30;60886;55.034;73.150;2023-12-14T09:26:43;-18.33;57.17
72762;SHT30;60886;55.034;73.150;2023-12-14T09:29:44;-18.35;57.27
72762;SHT30;60886;55.034;73.150;2023-12-14T09:32:46;-18.41;57.42
72762;SHT30;60886;55.034;73.150;2023-12-14T09:35:47;-18.49;57.26
72762;SHT30;60886;55.034;73.150;2023-12-14T09:38:49;-18.53;56.99
72762;SHT30;60886;55.034;73.150;2023-12-14T09:42:03;-18.56;57.26
72762;SHT30;60886;55.034;73.150;2023-12-14T09:45:07;-18.62;57.68
72762;SHT30;60886;55.034;73.150;2023-12-14T09:48:12;-18.63;57.91
72762;SHT30;60886;55.034;73.150;2023-12-14T09:51:18;-18.67;58.29
72762;SHT30;60886;55.034;73.150;2023-12-14T09:54:19;-18.76;58.87
72762;SHT30;60886;55.034;73.150;2023-12-14T09:57:21;-18.77;59.62
72762;SHT30;60886;55.034;73.150;2023-12-14T10:00:42;-18.75;58.78
72762;SHT30;60886;55.034;73.150;2023-12-14T10:04:11;-18.80;59.10
72762;SHT30;60886;55.034;73.150;2023-12-14T10:07:13;-18.79;58.92
72762;SHT30;60886;55.034;73.150;2023-12-14T10:10:15;-18.77;58.56
72762;SHT30;60886;55.034;73.150;2023-12-14T10:13:17;-18.80;58.08
72762;SHT30;60886;55.034;73.150;2023-12-14T10:16:30;-18.81;58.72
72762;SHT30;60886;55.034;73.150;2023-12-14T10:19:32;-18.81;58.79
72762;SHT30;60886;55.034;73.150;2023-12-14T10:22:33;-18.87;58.90
72762;SHT30;60886;55.034;73.150;2023-12-14T10:25:38;-18.93;58.69
72762;SHT30;60886;55.034;73.150;2023-12-14T10:28:40;-18.94;58.73
72762;SHT30;60886;55.034;73.150;2023-12-14T10:31:43;-19.00;58.41
72762;SHT30;60886;55.034;73.150;2023-12-14T10:34:47;-19.01;58.76
72762;SHT30;60886;55.034;73.150;2023-12-14T10:37:52;-19.08;59.37
72762;SHT30;60886;55.034;73.150;2023-12-14T10:40:54;-19.15;58.72
72762;SHT30;60886;55.034;73.150;2023-12-14T10:43:57;-19.27;58.32
72762;SHT30;60886;55.034;73.150;2023-12-14T10:47:03;-19.50;57.90
72762;SHT30;60886;55.034;73.150;2023-12-14T10:50:06;-19.72;58.31
72762;SHT30;60886;55.034;73.150;2023-12-14T10:53:08;-19.76;59.36
72762;SHT30;60886;55.034;73.150;2023-12-14T10:56:14;-19.76;59.90
72762;SHT30;60886;55.034;73.150;2023-12-14T10:59:16;-19.71;59.96
72762;SHT30;60886;55.034;73.150;2023-12-14T11:02:18;-19.71;60.15
72762;SHT30;60886;55.034;73.150;2023-12-14T11:05:22;-19.78;59.76
72762;SHT30;60886;55.034;73.150;2023-12-14T11:08:34;-19.82;59.66
72762;SHT30;60886;55.034;73.150;2023-12-14T11:14:50;-19.76;61.28
72762;SHT30;60886;55.034;73.150;2023-12-14T11:21:18;-19.81;61.03
72762;SHT30;60886;55.034;73.150;2023-12-14T11:24:28;-19.85;61.34
72762;SHT30;60886;55.034;73.150;2023-12-14T11:27:30;-19.97;60.40
72762;SHT30;60886;55.034;73.150;2023-12-14T11:30:34;-19.96;60.70
72762;SHT30;60886;55.034;73.150;2023-12-14T11:33:36;-19.95;60.58
72762;SHT30;60886;55.034;73.150;2023-12-14T11:36:39;-19.95;60.59
72762;SHT30;60886;55.034;73.150;2023-12-14T11:39:42;-20.00;60.49
72762;SHT30;60886;55.034;73.150;2023-12-14T11:42:45;-19.97;60.71
72762;SHT30;60886;55.034;73.150;2023-12-14T11:45:48;-19.99;60.93
72762;SHT30;60886;55.034;73.150;2023-12-14T11:48:49;-20.05;60.73
72762;SHT30;60886;55.034;73.150;2023-12-14T11:52:02;-20.13;60.40
72762;SHT30;60886;55.034;73.150;2023-12-14T11:55:05;-20.21;60.32
72762;SHT30;60886;55.034;73.150;2023-12-14T11:58:07;-20.17;60.95
72762;SHT30;60886;55.034;73.150;2023-12-14T12:01:17;-20.13;60.95
72762;SHT30;60886;55.034;73.150;2023-12-14T12:04:19;-20.20;60.81
72762;SHT30;60886;55.034;73.150;2023-12-14T12:07:21;-20.23;60.62
72762;SHT30;60886;55.034;73.150;2023-12-14T12:10:23;-20.23;61.10
72762;SHT30;60886;55.034;73.150;2023-12-14T12:13:25;-20.41;60.35
72762;SHT30;60886;55.034;73.150;2023-12-14T12:16:45;-20.47;60.77
72762;SHT30;60886;55.034;73.150;2023-12-14T12:19:47;-20.48;60.83
72762;SHT30;60886;55.034;73.150;2023-12-14T12:22:49;-20.54;60.67
72762;SHT30;60886;55.034;73.150;2023-12-14T12:25:53;-20.51;60.89
72762;SHT30;60886;55.034;73.150;2023-12-14T12:29:05;-20.52;61.02
72762;SHT30;60886;55.034;73.150;2023-12-14T12:32:07;-20.64;60.79
72762;SHT30;60886;55.034;73.150;2023-12-14T12:35:08;-20.62;60.97
72762;SHT30;60886;55.034;73.150;2023-12-14T12:38:10;-20.72;60.58
72762;SHT30;60886;55.034;73.150;2023-12-14T12:41:12;-20.81;60.92
72762;SHT30;60886;55.034;73.150;2023-12-14T12:44:13;-20.89;61.16
72762;SHT30;60886;55.034;73.150;2023-12-14T12:47:15;-20.89;61.50
72762;SHT30;60886;55.034;73.150;2023-12-14T12:50:16;-20.95;61.33
72762;SHT30;60886;55.034;73.150;2023-12-14T12:53:18;-20.98;61.68
72762;SHT30;60886;55.034;73.150;2023-12-14T12:56:20;-20.99;62.37
72762;SHT30;60886;55.034;73.150;2023-12-14T12:59:21;-21.02;62.27
72762;SHT30;60886;55.034;73.150;2023-12-14T13:02:23;-21.10;61.81
72762;SHT30;60886;55.034;73.150;2023-12-14T13:05:25;-21.20;61.97
72762;SHT30;60886;55.034;73.150;2023-12-14T13:08:36;-21.22;62.34
72762;SHT30;60886;55.034;73.150;2023-12-14T13:11:38;-21.31;62.39
72762;SHT30;60886;55.034;73.150;2023-12-14T13:14:40;-21.31;62.47
72762;SHT30;60886;55.034;73.150;2023-12-14T13:17:41;-21.27;62.82
72762;SHT30;60886;55.034;73.150;2023-12-14T13:20:43;-21.30;62.77
72762;SHT30;60886;55.034;73.150;2023-12-14T13:23:45;-21.38;62.50
72762;SHT30;60886;55.034;73.150;2023-12-14T13:26:46;-21.41;62.71
72762;SHT30;60886;55.034;73.150;2023-12-14T13:29:48;-21.37;62.88
72762;SHT30;60886;55.034;73.150;2023-12-14T13:32:49;-21.44;62.46
72762;SHT30;60886;55.034;73.150;2023-12-14T13:35:50;-21.40;62.87
72762;SHT30;60886;55.034;73.150;2023-12-14T13:38:52;-21.38;62.78
72762;SHT30;60886;55.034;73.150;2023-12-14T13:42:11;-21.37;62.92
72762;SHT30;60886;55.034;73.150;2023-12-14T13:45:15;-21.40;62.89
72762;SHT30;60886;55.034;73.150;2023-12-14T13:48:19;-21.43;62.62
72762;SHT30;60886;55.034;73.150;2023-12-14T13:51:36;-21.48;62.73
72762;SHT30;60886;55.034;73.150;2023-12-14T13:54:41;-21.51;62.96
72762;SHT30;60886;55.034;73.150;2023-12-14T13:57:43;-21.51;62.84
72762;SHT30;60886;55.034;73.150;2023-12-14T14:00:45;-21.57;62.73
72762;SHT30;60886;55.034;73.150;2023-12-14T14:03:46;-21.67;62.48
72762;SHT30;60886;55.034;73.150;2023-12-14T14:06:48;-21.69;62.73
72762;SHT30;60886;55.034;73.150;2023-12-14T14:09:49;-21.75;62.88
72762;SHT30;60886;55.034;73.150;2023-12-14T14:12:51;-21.77;62.99
72762;SHT30;60886;55.034;73.150;2023-12-14T14:15:53;-21.78;63.09
72762;SHT30;60886;55.034;73.150;2023-12-14T14:18:55;-21.79;63.18
72762;SHT30;60886;55.034;73.150;2023-12-14T14:21:59;-21.82;63.32
72762;SHT30;60886;55.034;73.150;2023-12-14T14:25:01;-21.88;63.33
72762;SHT30;60886;55.034;73.150;2023-12-14T14:28:04;-21.92;63.26
72762;SHT30;60886;55.034;73.150;2023-12-14T14:31:06;-21.93;63.45
72762;SHT30;60886;55.034;73.150;2023-12-14T14:34:08;-21.95;63.52
72762;SHT30;60886;55.034;73.150;2023-12-14T14:37:10;-21.95;63.80
72762;SHT30;60886;55.034;73.150;2023-12-14T14:40:12;-21.98;63.66
72762;SHT30;60886;55.034;73.150;2023-12-14T14:43:19;-21.92;63.86
72762;SHT30;60886;55.034;73.150;2023-12-14T14:46:22;-21.98;63.81
72762;SHT30;60886;55.034;73.150;2023-12-14T14:49:24;-21.95;64.44
72762;SHT30;60886;55.034;73.150;2023-12-14T14:52:26;-22.01;64.30
72762;SHT30;60886;55.034;73.150;2023-12-14T14:55:29;-22.01;64.76
72762;SHT30;60886;55.034;73.150;2023-12-14T14:58:30;-21.98;65.17
72762;SHT30;60886;55.034;73.150;2023-12-14T15:01:32;-22.01;65.48
72762;SHT30;60886;55.034;73.150;2023-12-14T15:04:33;-22.10;65.48
72762;SHT30;60886;55.034;73.150;2023-12-14T15:07:35;-22.06;65.53
72762;SHT30;60886;55.034;73.150;2023-12-14T15:10:37;-22.14;65.33
72762;SHT30;60886;55.034;73.150;2023-12-14T15:13:38;-22.23;65.24
72762;SHT30;60886;55.034;73.150;2023-12-14T15:16:41;-22.30;65.29
72762;SHT30;60886;55.034;73.150;2023-12-14T15:19:43;-22.19;65.82
72762;SHT30;60886;55.034;73.150;2023-12-14T15:22:48;-22.25;65.77
72762;SHT30;60886;55.034;73.150;2023-12-14T15:25:51;-22.36;65.38
72762;SHT30;60886;55.034;73.150;2023-12-14T15:28:53;-22.37;65.92
72762;SHT30;60886;55.034;73.150;2023-12-14T15:31:59;-22.40;65.93
72762;SHT30;60886;55.034;73.150;2023-12-14T15:35:01;-22.43;65.74
72762;SHT30;60886;55.034;73.150;2023-12-14T15:38:05;-22.42;65.84
72762;SHT30;60886;55.034;73.150;2023-12-14T15:41:06;-22.40;66.13
72762;SHT30;60886;55.034;73.150;2023-12-14T15:44:08;-22.44;65.80
72762;SHT30;60886;55.034;73.150;2023-12-14T15:47:14;-22.50;65.49
72762;SHT30;60886;55.034;73.150;2023-12-14T15:50:16;-22.46;65.82
72762;SHT30;60886;55.034;73.150;2023-12-14T15:53:17;-22.53;65.68
72762;SHT30;60886;55.034;73.150;2023-12-14T15:56:19;-22.59;65.60
72762;SHT30;60886;55.034;73.150;2023-12-14T15:59:24;-22.56;65.91
72762;SHT30;60886;55.034;73.150;2023-12-14T16:02:26;-22.53;66.14
72762;SHT30;60886;55.034;73.150;2023-12-14T16:05:28;-22.59;66.18
72762;SHT30;60886;55.034;73.150;2023-12-14T16:08:30;-22.61;66.06
72762;SHT30;60886;55.034;73.150;2023-12-14T16:11:31;-22.64;66.40
72762;SHT30;60886;55.034;73.150;2023-12-14T16:14:34;-22.67;66.52
72762;SHT30;60886;55.034;73.150;2023-12-14T16:17:36;-22.71;66.62
72762;SHT30;60886;55.034;73.150;2023-12-14T16:20:38;-22.70;66.72
72762;SHT30;60886;55.034;73.150;2023-12-14T16:23:39;-22.68;66.63
72762;SHT30;60886;55.034;73.150;2023-12-14T16:26:42;-22.76;66.39
72762;SHT30;60886;55.034;73.150;2023-12-14T16:29:46;-22.77;66.50
72762;SHT30;60886;55.034;73.150;2023-12-14T16:32:48;-22.88;66.59
72762;SHT30;60886;55.034;73.150;2023-12-14T16:35:50;-22.91;66.64
72762;SHT30;60886;55.034;73.150;2023-12-14T16:38:55;-22.87;67.15
72762;SHT30;60886;55.034;73.150;2023-12-14T16:41:59;-22.85;67.12
72762;SHT30;60886;55.034;73.150;2023-12-14T16:45:00;-22.97;67.10
72762;SHT30;60886;55.034;73.150;2023-12-14T16:48:03;-22.97;67.09
72762;SHT30;60886;55.034;73.150;2023-12-14T16:51:05;-22.98;67.30
72762;SHT30;60886;55.034;73.150;2023-12-14T16:54:07;-22.94;67.68
72762;SHT30;60886;55.034;73.150;2023-12-14T16:57:08;-22.97;67.39
72762;SHT30;60886;55.034;73.150;2023-12-14T17:00:10;-22.92;67.59
72762;SHT30;60886;55.034;73.150;2023-12-14T17:03:21;-22.94;67.63
72762;SHT30;60886;55.034;73.150;2023-12-14T17:06:40;-23.02;67.26
72762;SHT30;60886;55.034;73.150;2023-12-14T17:09:46;-22.99;67.59
72762;SHT30;60886;55.034;73.150;2023-12-14T17:12:49;-23.02;67.53
72762;SHT30;60886;55.034;73.150;2023-12-14T17:15:51;-23.08;67.63
72762;SHT30;60886;55.034;73.150;2023-12-14T17:18:52;-23.07;67.67
72762;SHT30;60886;55.034;73.150;2023-12-14T17:21:59;-23.09;67.87
72762;SHT30;60886;55.034;73.150;2023-12-14T17:25:01;-23.11;68.04
72762;SHT30;60886;55.034;73.150;2023-12-14T17:28:05;-23.14;68.11
72762;SHT30;60886;55.034;73.150;2023-12-14T17:31:08;-23.08;68.55
72762;SHT30;60886;55.034;73.150;2023-12-14T17:34:09;-23.09;68.57
72762;SHT30;60886;55.034;73.150;2023-12-14T17:37:12;-23.12;68.67
72762;SHT30;60886;55.034;73.150;2023-12-14T17:40:13;-23.12;68.34
72762;SHT30;60886;55.034;73.150;2023-12-14T17:43:15;-23.19;68.40
72762;SHT30;60886;55.034;73.150;2023-12-14T17:46:16;-23.14;68.68
72762;SHT30;60886;55.034;73.150;2023-12-14T17:49:20;-23.12;68.66
72762;SHT30;60886;55.034;73.150;2023-12-14T17:52:21;-23.15;68.44
72762;SHT30;60886;55.034;73.150;2023-12-14T17:55:23;-23.21;68.25
72762;SHT30;60886;55.034;73.150;2023-12-14T17:58:25;-23.25;68.25
72762;SHT30;60886;55.034;73.150;2023-12-14T18:01:27;-23.25;68.63
72762;SHT30;60886;55.034;73.150;2023-12-14T18:04:29;-23.29;68.57
72762;SHT30;60886;55.034;73.150;2023-12-14T18:07:30;-23.29;68.62
72762;SHT30;60886;55.034;73.150;2023-12-14T18:10:32;-23.39;68.61
72762;SHT30;60886;55.034;73.150;2023-12-14T18:13:33;-23.39;68.84
72762;SHT30;60886;55.034;73.150;2023-12-14T18:16:36;-23.33;68.89
72762;SHT30;60886;55.034;73.150;2023-12-14T18:19:40;-23.25;69.12
72762;SHT30;60886;55.034;73.150;2023-12-14T18:22:42;-23.23;69.04
72762;SHT30;60886;55.034;73.150;2023-12-14T18:25:43;-23.26;68.81
72762;SHT30;60886;55.034;73.150;2023-12-14T18:28:47;-23.54;67.72
72762;SHT30;60886;55.034;73.150;2023-12-14T18:31:49;-23.84;66.77
72762;SHT30;60886;55.034;73.150;2023-12-14T18:34:50;-23.88;67.13
72762;SHT30;60886;55.034;73.150;2023-12-14T18:37:52;-23.74;68.34
72762;SHT30;60886;55.034;73.150;2023-12-14T18:40:54;-23.69;69.04
72762;SHT30;60886;55.034;73.150;2023-12-14T18:43:55;-23.59;69.02
72762;SHT30;60886;55.034;73.150;2023-12-14T18:46:59;-23.53;68.95